Time;durP1;ratioP1;P1;durP2;ratioP2;P2;SDS_P1;SDS_P2;PMS_P1;PMS_P2;Temp;Humidity;BMP_temperature;BMP_pressure;BME280_temperature;BME280_humidity;BME280_pressure;Samples;Min_cycle;Max_cycle;Signal;HPM_P1;HPM_P2
2023/06/12 00:01:39;;;;;;;3.65;3.45;;;;;;;;;;4905449;29;20052;-78
2023/06/12 00:04:07;;;;;;;4.38;4.05;;;;;;;;;;4907113;29;20130;-79
2023/06/12 00:06:35;;;;;;;3.90;3.70;;;;;;;;;;4909034;29;20051;-78
2023/06/12 00:09:04;;;;;;;3.88;3.55;;;;;;;;;;4911942;29;20083;-79
2023/06/12 00:11:32;;;;;;;3.95;3.63;;;;;;;;;;4915233;29;21501;-77
2023/06/12 00:14:00;;;;;;;4.22;3.80;;;;;;;;;;4897495;29;20052;-77
2023/06/12 00:16:28;;;;;;;3.88;3.67;;;;;;;;;;4905459;29;20111;-78
2023/06/12 00:18:56;;;;;;;4.00;3.70;;;;;;;;;;4901165;29;20048;-78
2023/06/12 00:21:23;;;;;;;4.28;4.00;;;;;;;;;;4908144;29;20055;-78
2023/06/12 00:23:51;;;;;;;4.45;3.92;;;;;;;;;;4905374;29;20363;-77
2023/06/12 00:26:18;;;;;;;4.05;3.75;;;;;;;;;;4904652;29;20080;-78
2023/06/12 00:28:47;;;;;;;4.13;3.83;;;;;;;;;;4906823;29;20411;-77
2023/06/12 00:31:15;;;;;;;4.22;3.92;;;;;;;;;;4927705;29;20423;-78
2023/06/12 00:33:42;;;;;;;3.80;3.58;;;;;;;;;;4927998;29;20421;-80
2023/06/12 00:36:10;;;;;;;3.70;3.50;;;;;;;;;;4920449;29;20502;-78
2023/06/12 00:38:38;;;;;;;4.20;3.80;;;;;;;;;;4925044;29;20052;-79
2023/06/12 00:41:06;;;;;;;4.00;3.67;;;;;;;;;;4921778;29;20265;-79
2023/06/12 00:43:34;;;;;;;3.63;3.33;;;;;;;;;;4907109;29;20052;-78
2023/06/12 00:46:02;;;;;;;3.90;3.60;;;;;;;;;;4906352;29;20462;-78
2023/06/12 00:48:30;;;;;;;3.70;3.50;;;;;;;;;;4904253;29;20059;-78
2023/06/12 00:50:58;;;;;;;3.60;3.40;;;;;;;;;;4906172;29;20059;-78
2023/06/12 00:53:26;;;;;;;4.00;3.75;;;;;;;;;;4903795;29;20068;-77
2023/06/12 00:55:55;;;;;;;4.82;3.90;;;;;;;;;;4924711;29;20115;-78
2023/06/12 00:58:22;;;;;;;4.25;3.95;;;;;;;;;;4907863;29;20044;-78
2023/06/12 01:00:49;;;;;;;3.83;3.63;;;;;;;;;;4913020;29;20048;-79
2023/06/12 01:03:17;;;;;;;4.55;4.25;;;;;;;;;;4904908;29;20048;-79
2023/06/12 01:05:46;;;;;;;4.30;4.00;;;;;;;;;;4922756;29;20083;-78
2023/06/12 01:08:16;;;;;;;4.30;4.00;;;;;;;;;;4906412;29;20044;-79
2023/06/12 01:10:53;;;;;;;4.85;3.78;;;;;;;;;;4918826;29;20477;-78
2023/06/12 01:13:21;;;;;;;7.43;3.72;;;;;;;;;;4931249;29;20044;-78
2023/06/12 01:15:49;;;;;;;3.97;3.67;;;;;;;;;;4911709;29;21556;-77
2023/06/12 01:18:17;;;;;;;3.90;3.70;;;;;;;;;;4905944;29;20535;-78
2023/06/12 01:20:44;;;;;;;4.30;4.00;;;;;;;;;;4906275;29;20118;-78
2023/06/12 01:23:18;;;;;;;4.03;3.72;;;;;;;;;;4924352;29;20095;-79
2023/06/12 01:26:06;;;;;;;3.70;3.50;;;;;;;;;;4908929;29;20418;-78
2023/06/12 01:28:40;;;;;;;3.80;3.55;;;;;;;;;;4918652;29;20078;-78
2023/06/12 01:31:13;;;;;;;3.90;3.60;;;;;;;;;;4907890;29;20146;-77
2023/06/12 01:33:44;;;;;;;4.05;3.60;;;;;;;;;;4924328;29;20060;-77
2023/06/12 01:36:14;;;;;;;3.83;3.53;;;;;;;;;;4906840;29;20048;-78
2023/06/12 01:38:43;;;;;;;3.78;3.55;;;;;;;;;;4911598;29;20503;-78
2023/06/12 01:41:11;;;;;;;3.90;3.70;;;;;;;;;;4923540;29;20050;-78
2023/06/12 01:43:39;;;;;;;3.80;3.55;;;;;;;;;;4911725;29;20074;-78
2023/06/12 01:46:06;;;;;;;3.85;3.65;;;;;;;;;;4909968;29;20115;-76
2023/06/12 01:48:34;;;;;;;4.10;3.80;;;;;;;;;;4906635;29;20079;-78
2023/06/12 01:51:02;;;;;;;4.40;4.00;;;;;;;;;;4912437;29;20048;-79
2023/06/12 01:53:29;;;;;;;3.92;3.72;;;;;;;;;;4915239;29;20108;-79
2023/06/12 01:55:57;;;;;;;4.55;4.15;;;;;;;;;;4931473;29;20052;-78
2023/06/12 01:58:27;;;;;;;4.20;3.83;;;;;;;;;;4908160;29;20099;-78
2023/06/12 02:01:23;;;;;;;4.72;4.35;;;;;;;;;;4908700;29;20043;-79
2023/06/12 02:03:53;;;;;;;4.22;3.92;;;;;;;;;;4921312;29;20052;-78
2023/06/12 02:06:23;;;;;;;;;;;;;;;;;;4910249;29;20439;-78
2023/06/12 02:08:50;;;;;;;4.03;3.72;;;;;;;;;;4906214;29;20264;-78
2023/06/12 02:11:19;;;;;;;3.92;3.60;;;;;;;;;;4909465;29;20047;-78
2023/06/12 02:13:47;;;;;;;3.90;3.58;;;;;;;;;;4908074;29;20052;-78
2023/06/12 02:16:20;;;;;;;3.90;3.60;;;;;;;;;;4915320;29;20463;-77
2023/06/12 02:18:49;;;;;;;3.80;3.60;;;;;;;;;;4905542;29;20053;-77
2023/06/12 02:21:17;;;;;;;3.25;3.05;;;;;;;;;;4922370;29;20067;-78
2023/06/12 02:23:44;;;;;;;3.63;3.42;;;;;;;;;;4911097;29;20052;-77
2023/06/12 02:26:12;;;;;;;3.88;3.63;;;;;;;;;;4908600;29;20056;-78
2023/06/12 02:28:43;;;;;;;3.58;3.38;;;;;;;;;;4908498;29;20048;-77
2023/06/12 02:31:11;;;;;;;4.10;3.80;;;;;;;;;;4905924;29;20056;-77
2023/06/12 02:33:38;;;;;;;3.50;3.28;;;;;;;;;;4918103;29;20360;-80
2023/06/12 02:36:07;;;;;;;4.05;3.75;;;;;;;;;;4922921;29;20067;-79
2023/06/12 02:38:36;;;;;;;3.80;3.50;;;;;;;;;;4922784;29;20095;-78
2023/06/12 02:41:03;;;;;;;3.80;3.60;;;;;;;;;;4911262;29;20139;-77
2023/06/12 02:43:31;;;;;;;3.67;3.40;;;;;;;;;;4908824;29;20048;-77
2023/06/12 02:45:59;;;;;;;4.03;3.78;;;;;;;;;;4911083;29;20459;-78
2023/06/12 02:48:30;;;;;;;4.18;3.97;;;;;;;;;;4908120;29;20048;-79
2023/06/12 02:50:58;;;;;;;3.95;3.72;;;;;;;;;;4907762;29;20097;-77
2023/06/12 02:53:26;;;;;;;4.05;3.75;;;;;;;;;;4908901;29;20119;-78
2023/06/12 02:55:53;;;;;;;3.95;3.65;;;;;;;;;;4906800;29;20056;-78
2023/06/12 02:58:21;;;;;;;4.18;3.88;;;;;;;;;;4907062;29;20044;-78
2023/06/12 03:00:49;;;;;;;3.80;3.60;;;;;;;;;;4904696;29;20056;-78
2023/06/12 03:03:17;;;;;;;4.40;3.97;;;;;;;;;;4919398;29;20040;-77
2023/06/12 03:05:44;;;;;;;4.00;3.70;;;;;;;;;;4905541;29;20052;-78
2023/06/12 03:08:16;;;;;;;4.72;3.83;;;;;;;;;;4922577;29;20114;-78
2023/06/12 03:10:47;;;;;;;6.68;4.10;;;;;;;;;;4907225;29;20304;-77
2023/06/12 03:13:14;;;;;;;4.32;3.88;;;;;;;;;;4913997;29;20051;-77
2023/06/12 03:15:43;;;;;;;4.20;3.90;;;;;;;;;;4931077;29;20062;-79
2023/06/12 03:18:11;;;;;;;4.15;3.85;;;;;;;;;;4901805;29;20052;-79
2023/06/12 03:20:39;;;;;;;3.97;3.78;;;;;;;;;;4897632;29;20074;-78
2023/06/12 03:23:06;;;;;;;3.88;3.58;;;;;;;;;;4909387;29;20050;-79
2023/06/12 03:25:35;;;;;;;3.90;3.60;;;;;;;;;;4920601;29;20107;-77
2023/06/12 03:28:03;;;;;;;4.25;3.83;;;;;;;;;;4921784;29;20055;-77
2023/06/12 03:30:31;;;;;;;3.78;3.58;;;;;;;;;;4907661;29;20088;-78
2023/06/12 03:32:58;;;;;;;4.53;4.22;;;;;;;;;;4913406;29;20051;-78
2023/06/12 03:35:26;;;;;;;4.60;4.20;;;;;;;;;;4908692;29;20104;-79
2023/06/12 03:37:54;;;;;;;4.78;4.28;;;;;;;;;;4907715;29;20075;-77
2023/06/12 03:40:22;;;;;;;4.28;3.97;;;;;;;;;;4905456;29;20044;-77
2023/06/12 03:42:50;;;;;;;4.65;3.92;;;;;;;;;;4918607;29;20036;-78
2023/06/12 03:45:18;;;;;;;4.60;4.20;;;;;;;;;;4920660;29;20404;-78
2023/06/12 03:47:45;;;;;;;4.05;3.75;;;;;;;;;;4919962;29;20451;-78
2023/06/12 03:50:16;;;;;;;4.45;4.13;;;;;;;;;;4917290;29;20048;-76
2023/06/12 03:52:44;;;;;;;4.78;4.22;;;;;;;;;;4911243;29;20048;-77
2023/06/12 03:55:12;;;;;;;4.45;4.15;;;;;;;;;;4914046;29;20055;-78
2023/06/12 03:57:39;;;;;;;4.53;4.22;;;;;;;;;;4906376;29;20543;-77
2023/06/12 04:00:08;;;;;;;4.20;3.90;;;;;;;;;;4903233;29;20116;-79
2023/06/12 04:02:44;;;;;;;4.53;4.22;;;;;;;;;;4906425;29;20044;-78
2023/06/12 04:05:15;;;;;;;4.27;3.90;;;;;;;;;;4905041;29;20048;-78
2023/06/12 04:07:43;;;;;;;4.15;3.90;;;;;;;;;;4904943;29;20052;-78
2023/06/12 04:10:10;;;;;;;4.18;3.97;;;;;;;;;;4903281;29;20048;-80
2023/06/12 04:12:38;;;;;;;4.25;3.95;;;;;;;;;;4902877;29;20086;-78
2023/06/12 04:15:06;;;;;;;4.07;3.78;;;;;;;;;;4944891;23;20051;-75
2023/06/12 04:17:34;;;;;;;3.80;3.60;;;;;;;;;;4942522;28;20069;-76
2023/06/12 04:20:02;;;;;;;4.13;3.83;;;;;;;;;;4940496;28;20523;-75
2023/06/12 04:22:29;;;;;;;3.72;3.42;;;;;;;;;;4942000;28;20055;-75
2023/06/12 04:25:01;;;;;;;4.60;4.30;;;;;;;;;;4942728;28;20046;-76
2023/06/12 04:27:33;;;;;;;4.75;4.15;;;;;;;;;;4938657;28;20134;-75
2023/06/12 04:30:00;;;;;;;3.83;3.63;;;;;;;;;;4942808;28;20469;-75
2023/06/12 04:32:29;;;;;;;4.30;3.95;;;;;;;;;;4941243;28;20074;-75
2023/06/12 04:34:57;;;;;;;4.30;4.00;;;;;;;;;;4941980;28;20243;-75
2023/06/12 04:37:25;;;;;;;4.28;3.97;;;;;;;;;;4942300;28;20086;-75
2023/06/12 04:39:53;;;;;;;3.63;3.40;;;;;;;;;;4942091;28;20502;-75
2023/06/12 04:42:23;;;;;;;3.90;3.67;;;;;;;;;;4941444;28;20043;-75
2023/06/12 04:44:50;;;;;;;4.18;3.78;;;;;;;;;;4940110;28;20059;-75
2023/06/12 04:47:18;;;;;;;3.95;3.75;;;;;;;;;;4942581;28;20264;-75
2023/06/12 04:49:45;;;;;;;4.18;3.88;;;;;;;;;;4939158;28;20111;-75
2023/06/12 04:52:13;;;;;;;3.65;3.42;;;;;;;;;;4937664;28;20058;-75
2023/06/12 04:54:44;;;;;;;4.20;3.78;;;;;;;;;;4948754;28;20051;-75
2023/06/12 04:57:12;;;;;;;3.83;3.63;;;;;;;;;;4943167;28;20995;-76
2023/06/12 04:59:40;;;;;;;3.83;3.63;;;;;;;;;;4923821;28;20079;-75
2023/06/12 05:02:08;;;;;;;3.90;3.60;;;;;;;;;;4935775;28;21954;-75
2023/06/12 05:04:37;;;;;;;4.00;3.70;;;;;;;;;;4938950;28;20043;-75
2023/06/12 05:07:08;;;;;;;3.80;3.53;;;;;;;;;;4942729;28;20061;-75
2023/06/12 05:09:35;;;;;;;3.53;3.33;;;;;;;;;;4943725;28;20066;-75
2023/06/12 05:12:03;;;;;;;4.15;3.80;;;;;;;;;;4938834;28;20470;-75
2023/06/12 05:14:32;;;;;;;3.78;3.47;;;;;;;;;;4946535;28;20421;-75
2023/06/12 05:17:00;;;;;;;3.88;3.42;;;;;;;;;;4944555;28;20453;-75
2023/06/12 05:19:29;;;;;;;3.38;3.17;;;;;;;;;;4946718;28;20055;-75
2023/06/12 05:21:57;;;;;;;3.13;2.92;;;;;;;;;;4942989;28;20066;-75
2023/06/12 05:24:24;;;;;;;3.45;3.25;;;;;;;;;;4928418;29;20039;-75
2023/06/12 05:26:53;;;;;;;3.55;3.35;;;;;;;;;;4947246;28;20101;-75
2023/06/12 05:29:20;;;;;;;3.55;3.35;;;;;;;;;;4939952;28;20110;-76
2023/06/12 05:31:48;;;;;;;3.40;3.20;;;;;;;;;;4938521;28;20051;-76
2023/06/12 05:34:17;;;;;;;4.00;3.70;;;;;;;;;;4944957;28;20062;-75
2023/06/12 05:36:44;;;;;;;4.45;4.05;;;;;;;;;;4945666;28;20138;-75
2023/06/12 05:39:12;;;;;;;3.53;3.33;;;;;;;;;;4945242;28;20176;-75
2023/06/12 05:41:42;;;;;;;4.10;3.80;;;;;;;;;;4939004;29;20161;-75
2023/06/12 05:44:10;;;;;;;4.00;3.70;;;;;;;;;;4947500;28;20043;-76
2023/06/12 05:46:37;;;;;;;3.50;3.30;;;;;;;;;;4941764;28;20039;-75
2023/06/12 05:49:05;;;;;;;3.60;3.40;;;;;;;;;;4943813;28;20066;-75
2023/06/12 05:51:32;;;;;;;3.00;2.80;;;;;;;;;;4945297;29;20169;-75
2023/06/12 05:54:00;;;;;;;3.85;3.55;;;;;;;;;;4925909;29;20436;-76
2023/06/12 05:56:30;;;;;;;3.20;3.00;;;;;;;;;;4941102;28;20055;-75
2023/06/12 05:58:59;;;;;;;3.22;3.03;;;;;;;;;;4939534;28;20066;-75
2023/06/12 06:01:27;;;;;;;3.47;3.28;;;;;;;;;;4937163;28;20051;-75
2023/06/12 06:03:56;;;;;;;3.55;3.35;;;;;;;;;;4942855;28;20134;-75
2023/06/12 06:06:28;;;;;;;3.30;3.00;;;;;;;;;;4939342;28;20462;-76
2023/06/12 06:08:56;;;;;;;2.65;2.50;;;;;;;;;;4932232;28;20055;-76
2023/06/12 06:11:24;;;;;;;4.22;2.50;;;;;;;;;;4937390;28;21648;-75
2023/06/12 06:13:54;;;;;;;2.70;2.50;;;;;;;;;;4942098;28;20071;-75
2023/06/12 06:16:22;;;;;;;2.78;2.58;;;;;;;;;;4941359;28;20147;-76
2023/06/12 06:18:51;;;;;;;2.63;2.53;;;;;;;;;;4959221;28;20058;-76
2023/06/12 06:21:20;;;;;;;2.92;2.72;;;;;;;;;;4945833;28;20047;-76
2023/06/12 06:23:50;;;;;;;3.20;2.92;;;;;;;;;;4945591;28;20047;-76
2023/06/12 06:26:17;;;;;;;2.92;2.70;;;;;;;;;;4939329;28;20142;-76
2023/06/12 06:28:45;;;;;;;2.65;2.45;;;;;;;;;;4945065;29;20054;-75
2023/06/12 06:31:30;;;;;;;2.42;2.33;;;;;;;;;;4951787;28;20075;-75
2023/06/12 06:33:57;;;;;;;3.25;2.40;;;;;;;;;;4937393;28;20051;-75
2023/06/12 06:36:25;;;;;;;2.70;2.50;;;;;;;;;;4936992;28;20094;-75
2023/06/12 06:38:53;;;;;;;2.30;2.20;;;;;;;;;;4943067;28;20576;-75
2023/06/12 06:41:21;;;;;;;2.20;2.10;;;;;;;;;;4940965;28;20356;-75
2023/06/12 06:43:48;;;;;;;2.38;2.28;;;;;;;;;;4922403;29;20047;-76
2023/06/12 06:46:16;;;;;;;2.30;2.20;;;;;;;;;;4942710;28;20048;-75
2023/06/12 06:48:44;;;;;;;2.72;2.53;;;;;;;;;;4941031;28;20055;-76
2023/06/12 06:51:12;;;;;;;2.20;2.10;;;;;;;;;;4932398;28;20043;-76
2023/06/12 06:53:40;;;;;;;2.50;2.28;;;;;;;;;;4945870;28;20071;-75
2023/06/12 06:56:08;;;;;;;2.13;2.03;;;;;;;;;;4962726;28;20139;-74
2023/06/12 06:58:35;;;;;;;2.50;2.10;;;;;;;;;;4943864;28;20509;-76
2023/06/12 07:01:03;;;;;;;2.83;2.33;;;;;;;;;;4939285;28;20132;-77
2023/06/12 07:03:30;;;;;;;2.10;2.00;;;;;;;;;;4941045;28;20047;-75
2023/06/12 07:05:58;;;;;;;2.30;2.20;;;;;;;;;;4942214;28;20387;-76
2023/06/12 07:08:25;;;;;;;2.40;2.20;;;;;;;;;;4954981;28;20114;-76
2023/06/12 07:10:53;;;;;;;2.17;2.08;;;;;;;;;;4945510;28;20542;-75
2023/06/12 07:13:20;;;;;;;2.50;1.80;;;;;;;;;;4946167;28;20509;-74
2023/06/12 07:15:53;;;;;;;2.03;1.92;;;;;;;;;;4944229;28;20069;-75
2023/06/12 07:18:22;;;;;;;2.00;1.90;;;;;;;;;;4940714;28;20458;-76
2023/06/12 07:20:49;;;;;;;2.05;1.95;;;;;;;;;;4940402;28;20035;-76
2023/06/12 07:23:17;;;;;;;2.25;1.80;;;;;;;;;;4938285;28;20135;-75
2023/06/12 07:25:44;;;;;;;2.08;1.77;;;;;;;;;;4938587;28;20051;-76
2023/06/12 07:28:12;;;;;;;2.00;1.90;;;;;;;;;;4938764;28;20044;-77
2023/06/12 07:30:39;;;;;;;2.13;2.03;;;;;;;;;;4935712;28;20387;-75
2023/06/12 07:33:07;;;;;;;2.70;1.80;;;;;;;;;;4948681;28;20063;-75
2023/06/12 07:35:35;;;;;;;1.80;1.70;;;;;;;;;;4954382;28;20050;-75
2023/06/12 07:38:04;;;;;;;2.35;2.00;;;;;;;;;;4949667;28;20057;-75
2023/06/12 07:40:32;;;;;;;2.10;1.90;;;;;;;;;;4934448;28;20138;-76
2023/06/12 07:43:01;;;;;;;2.05;1.95;;;;;;;;;;4939208;28;20062;-76
2023/06/12 07:45:28;;;;;;;1.70;1.60;;;;;;;;;;4941032;28;20082;-76
2023/06/12 07:47:57;;;;;;;2.70;1.95;;;;;;;;;;4938703;28;20055;-75
2023/06/12 07:50:29;;;;;;;2.08;1.98;;;;;;;;;;4936968;28;20085;-76
2023/06/12 07:52:57;;;;;;;1.67;1.58;;;;;;;;;;4942034;28;20079;-77
2023/06/12 07:55:26;;;;;;;2.40;2.20;;;;;;;;;;4942860;28;20051;-76
2023/06/12 07:57:55;;;;;;;2.03;1.92;;;;;;;;;;4943690;28;20047;-77
2023/06/12 08:00:24;;;;;;;1.90;1.80;;;;;;;;;;4939073;28;20318;-77
2023/06/12 08:03:03;;;;;;;1.65;1.55;;;;;;;;;;4933429;28;20090;-76
2023/06/12 08:05:50;;;;;;;1.70;1.60;;;;;;;;;;4944434;28;20047;-76
2023/06/12 08:08:18;;;;;;;1.83;1.73;;;;;;;;;;4941080;28;20055;-77
2023/06/12 08:10:46;;;;;;;2.00;1.90;;;;;;;;;;4960203;28;20402;-77
2023/06/12 08:13:13;;;;;;;4.30;2.30;;;;;;;;;;4940380;28;20145;-76
2023/06/12 08:15:41;;;;;;;2.83;2.47;;;;;;;;;;4944231;28;20144;-77
2023/06/12 08:18:12;;;;;;;2.00;1.90;;;;;;;;;;4945601;28;20054;-77
2023/06/12 08:20:40;;;;;;;2.10;2.00;;;;;;;;;;4961217;28;20047;-75
2023/06/12 08:23:07;;;;;;;1.80;1.70;;;;;;;;;;4944101;28;20333;-75
2023/06/12 08:25:36;;;;;;;1.77;1.67;;;;;;;;;;4939852;28;20063;-75
2023/06/12 08:28:03;;;;;;;1.75;1.65;;;;;;;;;;4944629;28;20505;-75
2023/06/12 08:30:31;;;;;;;2.38;2.28;;;;;;;;;;4942562;28;20058;-75
2023/06/12 08:32:58;;;;;;;2.22;2.03;;;;;;;;;;4943880;28;20055;-76
2023/06/12 08:35:26;;;;;;;2.80;1.95;;;;;;;;;;4943858;28;20047;-75
2023/06/12 08:37:55;;;;;;;2.00;1.90;;;;;;;;;;4946547;28;20145;-75
2023/06/12 08:40:24;;;;;;;2.53;1.92;;;;;;;;;;4936616;28;20051;-76
2023/06/12 08:42:52;;;;;;;2.17;2.08;;;;;;;;;;4944456;28;20130;-77
2023/06/12 08:45:20;;;;;;;2.05;1.95;;;;;;;;;;4958085;28;20086;-76
2023/06/12 08:47:49;;;;;;;1.92;1.83;;;;;;;;;;4934953;28;21881;-75
2023/06/12 08:50:18;;;;;;;1.75;1.65;;;;;;;;;;4933837;28;20422;-76
2023/06/12 08:52:51;;;;;;;3.05;2.13;;;;;;;;;;4941870;28;20078;-77
2023/06/12 08:55:18;;;;;;;2.08;1.98;;;;;;;;;;4941139;28;20062;-76
2023/06/12 08:57:47;;;;;;;2.00;1.83;;;;;;;;;;4941199;28;20087;-75
2023/06/12 09:00:15;;;;;;;2.00;1.90;;;;;;;;;;4938486;28;20071;-75
2023/06/12 09:02:45;;;;;;;2.85;1.70;;;;;;;;;;4936619;28;20127;-76
2023/06/12 09:05:26;;;;;;;2.00;1.90;;;;;;;;;;4944340;28;20035;-76
2023/06/12 09:07:55;;;;;;;2.40;2.22;;;;;;;;;;4945678;28;20150;-75
2023/06/12 09:10:23;;;;;;;2.03;1.92;;;;;;;;;;4944149;28;20091;-75
2023/06/12 09:12:53;;;;;;;1.55;1.52;;;;;;;;;;4940867;28;20134;-76
2023/06/12 09:15:21;;;;;;;2.42;2.08;;;;;;;;;;4940130;28;20129;-76
2023/06/12 09:17:53;;;;;;;2.08;1.88;;;;;;;;;;4944955;28;20472;-75
2023/06/12 09:20:26;;;;;;;2.28;2.08;;;;;;;;;;4943811;28;20054;-75
2023/06/12 09:23:09;;;;;;;2.20;2.00;;;;;;;;;;4945171;28;20077;-76
2023/06/12 09:25:39;;;;;;;1.92;1.83;;;;;;;;;;4945577;28;20366;-76
2023/06/12 09:28:08;;;;;;;2.00;1.90;;;;;;;;;;4942111;28;20051;-75
2023/06/12 09:30:39;;;;;;;1.77;1.48;;;;;;;;;;4945452;28;20051;-76
2023/06/12 09:33:08;;;;;;;1.90;1.80;;;;;;;;;;4946201;28;20043;-75
2023/06/12 09:35:51;;;;;;;1.88;1.77;;;;;;;;;;4943386;28;20047;-75
2023/06/12 09:38:19;;;;;;;2.17;1.98;;;;;;;;;;4940755;28;20058;-75
2023/06/12 09:40:57;;;;;;;2.38;1.85;;;;;;;;;;4940612;28;20130;-76
2023/06/12 09:43:28;;;;;;;1.70;1.60;;;;;;;;;;4940215;28;20403;-77
2023/06/12 09:45:55;;;;;;;3.80;1.63;;;;;;;;;;4942841;28;20131;-77
2023/06/12 09:48:23;;;;;;;1.80;1.70;;;;;;;;;;4940296;28;20051;-76
2023/06/12 09:50:51;;;;;;;1.55;1.52;;;;;;;;;;4940229;28;20127;-75
2023/06/12 09:53:20;;;;;;;1.80;1.70;;;;;;;;;;4950273;28;20050;-77
2023/06/12 09:55:49;;;;;;;1.70;1.63;;;;;;;;;;4946715;28;20143;-77
2023/06/12 09:58:18;;;;;;;1.63;1.52;;;;;;;;;;4944246;28;20043;-75
2023/06/12 10:00:46;;;;;;;2.88;1.95;;;;;;;;;;4945351;28;20039;-76
2023/06/12 10:03:15;;;;;;;1.80;1.70;;;;;;;;;;4947978;28;20039;-76
2023/06/12 10:05:48;;;;;;;1.63;1.52;;;;;;;;;;4947027;28;20043;-76
2023/06/12 10:08:18;;;;;;;1.75;1.65;;;;;;;;;;4945016;28;20047;-77
2023/06/12 10:10:48;;;;;;;4.53;1.80;;;;;;;;;;4944219;28;20135;-76
2023/06/12 10:13:16;;;;;;;1.75;1.65;;;;;;;;;;4943599;28;20047;-77
2023/06/12 10:15:44;;;;;;;1.95;1.85;;;;;;;;;;4942157;28;20788;-78
2023/06/12 10:18:12;;;;;;;1.90;1.80;;;;;;;;;;4942716;28;20106;-78
2023/06/12 10:20:41;;;;;;;1.42;1.42;;;;;;;;;;4937235;28;20047;-77
2023/06/12 10:23:09;;;;;;;1.88;1.77;;;;;;;;;;4947765;28;20047;-79
2023/06/12 10:25:36;;;;;;;1.80;1.70;;;;;;;;;;4945415;28;20062;-77
2023/06/12 10:28:05;;;;;;;4.00;1.55;;;;;;;;;;4949173;28;20523;-79
2023/06/12 10:30:32;;;;;;;1.70;1.60;;;;;;;;;;4943094;28;20138;-77
2023/06/12 10:33:08;;;;;;;1.75;1.65;;;;;;;;;;4940353;28;20075;-76
2023/06/12 10:35:35;;;;;;;1.75;1.65;;;;;;;;;;4939046;28;20101;-77
2023/06/12 10:38:03;;;;;;;1.80;1.70;;;;;;;;;;4942879;28;20047;-77
2023/06/12 10:40:31;;;;;;;1.80;1.63;;;;;;;;;;4938423;28;20490;-75
2023/06/12 10:43:14;;;;;;;1.80;1.70;;;;;;;;;;4948430;28;20066;-77
2023/06/12 10:45:51;;;;;;;1.70;1.60;;;;;;;;;;4939948;28;20571;-76
2023/06/12 10:48:19;;;;;;;1.63;1.52;;;;;;;;;;4938415;28;20157;-75
2023/06/12 10:51:05;;;;;;;1.67;1.58;;;;;;;;;;4949395;28;20043;-76
2023/06/12 10:53:32;;;;;;;1.52;1.52;;;;;;;;;;4941210;28;20054;-75
2023/06/12 10:56:06;;;;;;;2.22;2.10;;;;;;;;;;4938571;28;20130;-75
2023/06/12 10:58:38;;;;;;;1.70;1.60;;;;;;;;;;4944537;28;20051;-75
2023/06/12 11:01:10;;;;;;;1.70;1.60;;;;;;;;;;4943898;28;20063;-75
2023/06/12 11:03:39;;;;;;;2.35;1.98;;;;;;;;;;4944458;28;20082;-76
2023/06/12 11:06:13;;;;;;;1.42;1.38;;;;;;;;;;4946996;28;20509;-75
2023/06/12 11:08:41;;;;;;;1.70;1.60;;;;;;;;;;4938086;28;20050;-75
2023/06/12 11:11:11;;;;;;;1.70;1.60;;;;;;;;;;4937690;28;20056;-75
2023/06/12 11:13:40;;;;;;;1.60;1.50;;;;;;;;;;4947629;28;20051;-75
2023/06/12 11:16:07;;;;;;;1.77;1.67;;;;;;;;;;4947297;28;20533;-76
2023/06/12 11:18:35;;;;;;;1.40;1.40;;;;;;;;;;4946512;28;20049;-75
2023/06/12 11:21:03;;;;;;;1.70;1.60;;;;;;;;;;4941713;28;20042;-76
2023/06/12 11:23:30;;;;;;;2.38;2.28;;;;;;;;;;4951267;28;20075;-75
2023/06/12 11:25:59;;;;;;;1.95;1.85;;;;;;;;;;4944581;28;20501;-75
2023/06/12 11:28:28;;;;;;;2.15;1.95;;;;;;;;;;4938523;28;20043;-76
2023/06/12 11:30:56;;;;;;;1.75;1.70;;;;;;;;;;4935965;28;20050;-76
2023/06/12 11:33:38;;;;;;;2.67;1.98;;;;;;;;;;4935275;28;20051;-75
2023/06/12 11:36:08;;;;;;;2.22;1.70;;;;;;;;;;4937240;28;20129;-75
2023/06/12 11:38:36;;;;;;;1.70;1.60;;;;;;;;;;4946015;28;20496;-75
2023/06/12 11:41:10;;;;;;;2.00;1.77;;;;;;;;;;4941445;28;20085;-76
2023/06/12 11:43:37;;;;;;;1.67;1.60;;;;;;;;;;4945449;28;20130;-75
2023/06/12 11:46:05;;;;;;;1.48;1.48;;;;;;;;;;4937472;28;20082;-75
2023/06/12 11:48:33;;;;;;;1.70;1.60;;;;;;;;;;4943167;28;20070;-76
2023/06/12 11:51:04;;;;;;;1.85;1.80;;;;;;;;;;4944804;28;20124;-76
2023/06/12 11:53:32;;;;;;;1.73;1.63;;;;;;;;;;4941817;28;20461;-78
2023/06/12 11:56:03;;;;;;;1.30;1.30;;;;;;;;;;4947624;28;20049;-77
2023/06/12 11:58:35;;;;;;;1.40;1.40;;;;;;;;;;4946619;28;20047;-77
2023/06/12 12:01:13;;;;;;;1.48;1.48;;;;;;;;;;4944681;28;20047;-77
2023/06/12 12:03:45;;;;;;;1.20;1.20;;;;;;;;;;4947080;28;20043;-75
2023/06/12 12:06:14;;;;;;;3.28;1.60;;;;;;;;;;4947684;28;20065;-77
2023/06/12 12:08:42;;;;;;;1.40;1.40;;;;;;;;;;4947072;28;20035;-77
2023/06/12 12:11:16;;;;;;;1.50;1.40;;;;;;;;;;4943587;28;20458;-76
2023/06/12 12:13:50;;;;;;;1.40;1.40;;;;;;;;;;4900781;28;1183862;-80
2023/06/12 12:16:22;;;;;;;1.77;1.30;;;;;;;;;;4947677;28;20039;-78
2023/06/12 12:18:50;;;;;;;1.40;1.40;;;;;;;;;;4948680;28;20057;-76
2023/06/12 12:21:17;;;;;;;1.60;1.50;;;;;;;;;;4946990;28;20066;-77
2023/06/12 12:23:45;;;;;;;1.67;1.58;;;;;;;;;;4947542;28;20070;-77
2023/06/12 12:26:13;;;;;;;1.60;1.50;;;;;;;;;;4946525;28;20692;-77
2023/06/12 12:28:42;;;;;;;1.60;1.50;;;;;;;;;;4946123;28;20046;-77
2023/06/12 12:31:10;;;;;;;1.60;1.50;;;;;;;;;;4946138;28;20050;-76
2023/06/12 12:33:37;;;;;;;1.77;1.38;;;;;;;;;;4947865;28;20047;-77
2023/06/12 12:36:05;;;;;;;1.40;1.30;;;;;;;;;;4947722;28;20055;-76
2023/06/12 12:38:32;;;;;;;1.67;1.50;;;;;;;;;;4947247;28;20043;-76
2023/06/12 12:41:00;;;;;;;1.02;1.02;;;;;;;;;;4946082;28;20043;-77
2023/06/12 12:43:27;;;;;;;1.60;1.50;;;;;;;;;;4945907;28;20047;-76
2023/06/12 12:45:54;;;;;;;1.80;1.70;;;;;;;;;;4948236;28;20460;-77
2023/06/12 12:48:23;;;;;;;1.00;1.00;;;;;;;;;;4948582;28;20269;-78
2023/06/12 12:50:51;;;;;;;1.23;1.20;;;;;;;;;;4947203;28;20118;-77
2023/06/12 12:53:35;;;;;;;0.93;0.93;;;;;;;;;;4944905;29;20040;-77
2023/06/12 12:56:03;;;;;;;1.30;1.30;;;;;;;;;;4947384;28;20055;-77
2023/06/12 12:58:31;;;;;;;8.45;7.88;;;;;;;;;;4945070;28;20051;-77
2023/06/12 13:00:59;;;;;;;3.50;3.28;;;;;;;;;;4947272;28;20051;-77
2023/06/12 13:03:33;;;;;;;2.00;1.90;;;;;;;;;;4943877;28;20070;-77
2023/06/12 13:06:00;;;;;;;1.42;1.33;;;;;;;;;;4948940;28;20520;-77
2023/06/12 13:08:28;;;;;;;2.25;1.60;;;;;;;;;;4945102;28;20063;-77
2023/06/12 13:10:56;;;;;;;1.70;1.60;;;;;;;;;;4941839;28;20047;-77
2023/06/12 13:13:24;;;;;;;1.20;1.20;;;;;;;;;;4945036;28;20090;-77
2023/06/12 13:15:51;;;;;;;1.98;1.50;;;;;;;;;;4946105;28;20051;-77
2023/06/12 13:18:18;;;;;;;1.50;1.40;;;;;;;;;;4950975;28;20521;-76
2023/06/12 13:20:46;;;;;;;1.35;1.35;;;;;;;;;;4950491;28;20047;-76
2023/06/12 13:23:14;;;;;;;1.55;1.20;;;;;;;;;;4952544;28;20406;-76
2023/06/12 13:25:41;;;;;;;1.33;1.25;;;;;;;;;;4949449;28;20082;-77
2023/06/12 13:28:08;;;;;;;1.23;1.23;;;;;;;;;;4950192;28;22408;-76
2023/06/12 13:30:36;;;;;;;1.60;1.50;;;;;;;;;;4947700;28;20043;-77
2023/06/12 13:33:04;;;;;;;1.30;1.20;;;;;;;;;;4947723;28;20047;-78
2023/06/12 13:35:31;;;;;;;1.63;1.52;;;;;;;;;;4950871;28;20058;-76
2023/06/12 13:37:59;;;;;;;1.40;1.40;;;;;;;;;;4954848;28;20055;-77
2023/06/12 13:40:26;;;;;;;1.20;1.20;;;;;;;;;;4950314;28;20051;-77
2023/06/12 13:42:54;;;;;;;1.50;1.50;;;;;;;;;;4950491;28;20074;-78
2023/06/12 13:45:21;;;;;;;1.45;1.45;;;;;;;;;;4945665;28;20557;-78
2023/06/12 13:47:49;;;;;;;1.30;1.30;;;;;;;;;;4942837;28;20076;-76
2023/06/12 13:50:16;;;;;;;1.10;1.10;;;;;;;;;;4951593;28;20101;-78
2023/06/12 13:52:45;;;;;;;1.35;1.25;;;;;;;;;;4948595;28;20079;-77
2023/06/12 13:55:12;;;;;;;1.40;1.20;;;;;;;;;;4945533;28;20099;-76
2023/06/12 13:57:42;;;;;;;1.50;1.50;;;;;;;;;;4945458;28;20055;-76
2023/06/12 14:00:10;;;;;;;1.15;1.15;;;;;;;;;;4943771;28;20047;-76
2023/06/12 14:02:38;;;;;;;1.23;1.23;;;;;;;;;;4950750;28;20043;-76
2023/06/12 14:05:06;;;;;;;1.45;1.42;;;;;;;;;;4947082;28;20043;-77
2023/06/12 14:07:37;;;;;;;1.42;1.38;;;;;;;;;;4947860;28;20041;-77
2023/06/12 14:10:07;;;;;;;1.48;1.38;;;;;;;;;;4947725;28;20097;-77
2023/06/12 14:12:34;;;;;;;2.20;1.60;;;;;;;;;;4938376;28;20501;-78
2023/06/12 14:15:04;;;;;;;1.17;1.17;;;;;;;;;;4944539;28;20102;-76
2023/06/12 14:17:32;;;;;;;3.33;1.53;;;;;;;;;;4946425;28;20052;-76
2023/06/12 14:19:59;;;;;;;1.38;1.35;;;;;;;;;;4943994;28;20800;-75
2023/06/12 14:22:28;;;;;;;1.60;1.50;;;;;;;;;;4942194;28;20071;-77
2023/06/12 14:24:55;;;;;;;1.48;1.38;;;;;;;;;;4944357;28;20482;-76
2023/06/12 14:27:23;;;;;;;1.55;1.45;;;;;;;;;;4945091;28;20070;-76
2023/06/12 14:29:50;;;;;;;1.48;1.38;;;;;;;;;;4947239;28;20043;-76
2023/06/12 14:32:18;;;;;;;1.50;1.50;;;;;;;;;;4950377;28;20505;-77
2023/06/12 14:34:45;;;;;;;1.05;1.05;;;;;;;;;;4948870;28;20051;-76
2023/06/12 14:37:12;;;;;;;1.50;1.50;;;;;;;;;;4949455;28;20051;-75
2023/06/12 14:39:41;;;;;;;1.73;1.70;;;;;;;;;;4948236;28;20110;-77
2023/06/12 14:42:10;;;;;;;1.40;1.40;;;;;;;;;;4950469;28;20047;-76
2023/06/12 14:44:37;;;;;;;1.63;1.50;;;;;;;;;;4960268;28;20516;-76
2023/06/12 14:47:07;;;;;;;1.27;1.27;;;;;;;;;;4951289;28;20055;-76
2023/06/12 14:49:34;;;;;;;1.20;1.20;;;;;;;;;;4948029;28;20063;-76
2023/06/12 14:52:02;;;;;;;1.20;1.20;;;;;;;;;;4951595;28;20062;-76
2023/06/12 14:54:29;;;;;;;1.20;1.20;;;;;;;;;;4949028;28;20076;-76